Time;durP1;ratioP1;P1;durP2;ratioP2;P2;SDS_P1;SDS_P2;PMS_P1;PMS_P2;Temp;Humidity;BMP_temperature;BMP_pressure;BME280_temperature;BME280_humidity;BME280_pressure;Samples;Min_cycle;Max_cycle;Signal;HPM_P1;HPM_P2
2022/02/01 00:01:06;;;;;;;19.60;1.42;;;;;;;2.59;90.99;101598.06;2064572;28;20097;-73
2022/02/01 00:02:16;;;;;;;18.35;1.88;;;;;;;2.59;91.12;101597.16;2063415;28;44974;-73
2022/02/01 00:03:19;;;;;;;20.35;2.10;;;;;;;2.55;91.24;101584.72;2064275;28;22933;-73
2022/02/01 00:04:41;;;;;;;13.57;1.70;;;;;;;2.55;91.39;101588.28;2063384;28;45297;-72
2022/02/01 00:05:55;;;;;;;20.27;1.92;;;;;;;2.53;90.93;101584.72;2063100;28;45918;-73
2022/02/01 00:07:13;;;;;;;25.45;2.60;;;;;;;2.50;90.86;101592.59;2063393;28;42829;-73
2022/02/01 00:09:23;;;;;;;18.38;1.42;;;;;;;2.44;91.10;101579.22;2069324;28;38715;-73
2022/02/01 00:10:54;;;;;;;20.70;1.63;;;;;;;2.38;91.25;101582.63;2062239;28;45348;-72
2022/02/01 00:13:16;;;;;;;14.35;1.38;;;;;;;2.25;91.37;101581.50;2063395;28;40017;-73
2022/02/01 00:14:32;;;;;;;21.95;2.08;;;;;;;2.18;91.39;101584.84;2063411;28;21022;-72
2022/02/01 00:16:19;;;;;;;19.42;1.55;;;;;;;2.11;92.27;101588.22;2064372;28;20089;-72
2022/02/01 00:35:20;;;;;;;16.05;1.60;;;;;;;1.60;92.12;101594.97;2063536;28;34146;-72
2022/02/01 00:36:29;;;;;;;24.00;1.98;;;;;;;1.61;91.96;101604.66;2063942;28;43132;-72
2022/02/01 00:37:35;;;;;;;16.27;1.60;;;;;;;1.62;91.41;101602.94;2062881;28;45021;-73
2022/02/01 00:38:52;;;;;;;16.02;1.45;;;;;;;1.58;91.25;101607.25;2063499;28;44907;-72
2022/02/01 00:39:58;;;;;;;24.60;2.00;;;;;;;1.58;91.00;101598.41;2062911;28;44708;-72
2022/02/01 00:41:04;;;;;;;21.58;2.53;;;;;;;1.57;91.29;101601.94;2062803;28;44309;-72
2022/02/01 00:42:07;;;;;;;16.88;1.52;;;;;;;1.53;91.26;101604.47;2070591;28;38296;-73
2022/02/01 00:43:09;;;;;;;16.55;2.53;;;;;;;1.52;92.02;101597.41;2070581;28;44254;-71
2022/02/01 00:44:14;;;;;;;18.38;1.98;;;;;;;1.50;91.86;101592.97;2063425;28;44687;-73
2022/02/01 00:45:15;;;;;;;18.05;1.33;;;;;;;1.49;91.23;101597.34;2063065;28;41230;-73
2022/02/01 00:46:17;;;;;;;18.88;1.50;;;;;;;1.49;91.17;101601.72;2062780;28;44009;-73
2022/02/01 00:47:19;;;;;;;18.50;1.95;;;;;;;1.49;91.35;101607.91;2062181;28;43390;-73
2022/02/01 00:48:21;;;;;;;18.65;1.60;;;;;;;1.46;91.82;101602.53;2063241;28;45525;-73
2022/02/01 00:49:24;;;;;;;24.58;2.15;;;;;;;1.47;91.57;101606.06;2063167;28;45974;-72
2022/02/01 00:50:27;;;;;;;24.58;1.70;;;;;;;1.47;91.61;101617.53;2063132;28;42083;-73
2022/02/01 00:51:28;;;;;;;24.33;1.92;;;;;;;1.49;91.40;101610.56;2109614;23;45063;-71
2022/02/01 00:52:30;;;;;;;25.48;1.65;;;;;;;1.45;91.31;101602.50;2090395;28;44346;-71
2022/02/01 00:53:32;;;;;;;24.88;1.75;;;;;;;1.43;91.17;101601.56;2086911;28;45586;-71
2022/02/01 00:54:37;;;;;;;17.25;1.45;;;;;;;1.42;91.61;101611.25;2079045;28;45155;-71
2022/02/01 00:55:39;;;;;;;15.55;1.75;;;;;;;1.42;91.16;101615.59;2070816;28;44457;-69
2022/02/01 00:56:40;;;;;;;18.23;1.63;;;;;;;1.40;91.43;101618.25;2078631;28;45542;-71
2022/02/01 00:57:47;;;;;;;18.05;1.48;;;;;;;1.39;91.54;101615.56;2070483;28;45668;-70
2022/02/01 00:58:48;;;;;;;20.67;1.90;;;;;;;1.37;91.60;101618.16;2064380;28;39204;-71
2022/02/01 00:59:52;;;;;;;25.17;1.80;;;;;;;1.41;91.19;101621.75;2078770;28;43991;-71
2022/02/01 01:00:54;;;;;;;21.05;2.28;;;;;;;1.40;91.35;101612.97;2079513;28;45891;-71
2022/02/01 01:01:56;;;;;;;22.95;2.10;;;;;;;1.41;91.31;101614.72;2078879;28;38943;-71
2022/02/01 01:02:58;;;;;;;21.17;1.70;;;;;;;1.40;91.23;101612.97;2079730;28;46334;-71
2022/02/01 01:04:00;;;;;;;13.18;1.27;;;;;;;1.39;91.01;101608.53;2079442;28;42705;-71
2022/02/01 01:05:05;;;;;;;21.45;1.80;;;;;;;1.39;91.04;101612.91;2079570;28;39695;-70
2022/02/01 01:06:07;;;;;;;19.40;1.90;;;;;;;1.38;91.08;101604.09;2079233;28;44266;-71
2022/02/01 01:07:08;;;;;;;19.40;1.70;;;;;;;1.39;91.01;101607.63;2079370;28;44111;-71
2022/02/01 01:08:10;;;;;;;16.75;1.42;;;;;;;1.36;91.19;101605.78;2078708;28;45505;-71
2022/02/01 01:09:12;;;;;;;16.55;1.67;;;;;;;1.36;90.95;101603.16;2071013;28;44748;-71
2022/02/01 01:10:14;;;;;;;15.20;1.45;;;;;;;1.38;91.03;101609.38;2078571;28;44119;-71
2022/02/01 01:11:16;;;;;;;21.63;2.05;;;;;;;1.38;91.12;101619.03;2078806;28;45729;-71
2022/02/01 01:12:18;;;;;;;18.23;2.05;;;;;;;1.39;90.72;101615.56;2078725;28;44582;-71
2022/02/01 01:15:02;;;;;;;26.95;1.90;;;;;;;1.38;91.07;101617.28;2070361;28;42566;-71
2022/02/01 01:44:27;;;;;;;18.23;1.10;;;;;;;2.00;85.10;101617.03;2087188;28;44339;-70
2022/02/01 01:45:38;;;;;;;12.73;1.73;;;;;;;2.01;85.29;101608.28;2086879;28;44236;-71
2022/02/01 01:53:22;;;;;;;20.63;1.65;;;;;;;2.00;85.91;101600.31;2084823;28;20104;-70
2022/02/01 01:54:25;;;;;;;16.35;1.73;;;;;;;1.99;85.30;101602.06;2086468;28;46553;-71
2022/02/01 01:55:30;;;;;;;12.63;1.38;;;;;;;1.98;85.76;101602.03;2087302;28;43289;-70
2022/02/01 01:56:36;;;;;;;13.77;1.38;;;;;;;1.97;86.07;101600.22;2087564;28;39238;-70
2022/02/01 01:57:41;;;;;;;19.20;2.00;;;;;;;1.96;86.32;101598.47;2088354;28;20845;-71
2022/02/01 01:58:43;;;;;;;15.20;1.13;;;;;;;1.95;86.23;101602.81;2087296;28;44128;-71
2022/02/01 01:59:46;;;;;;;23.38;1.85;;;;;;;1.96;85.78;101598.47;2088447;28;20143;-70
2022/02/01 02:01:52;;;;;;;18.42;1.50;;;;;;;1.97;85.66;101600.22;2087526;28;44268;-71
2022/02/01 02:02:57;;;;;;;21.23;1.90;;;;;;;1.97;85.60;101597.59;2087243;28;46368;-71
2022/02/01 02:04:02;;;;;;;17.10;1.60;;;;;;;1.96;86.06;101601.97;2087417;28;44378;-71
2022/02/01 02:05:04;;;;;;;22.52;1.40;;;;;;;1.96;85.52;101587.91;2087261;28;45947;-71
2022/02/01 02:06:06;;;;;;;16.85;1.77;;;;;;;1.89;85.85;101578.94;2087469;28;44428;-71
2022/02/01 02:07:08;;;;;;;15.98;1.38;;;;;;;1.88;86.33;101583.34;2087613;28;37691;-71
2022/02/01 02:08:11;;;;;;;17.70;1.70;;;;;;;1.86;86.27;101569.19;2087431;28;43427;-71
2022/02/01 02:09:13;;;;;;;16.00;1.20;;;;;;;1.83;85.95;101577.06;2086653;28;43681;-71
2022/02/01 02:10:15;;;;;;;18.95;1.38;;;;;;;1.79;86.78;101575.16;2086885;28;46289;-71
2022/02/01 02:11:35;;;;;;;17.13;1.52;;;;;;;1.76;86.60;101566.28;2088290;28;44328;-70
2022/02/01 02:14:24;;;;;;;12.45;0.77;;;;;;;1.65;86.81;101563.41;2088731;28;44299;-70
2022/02/01 02:15:40;;;;;;;24.15;1.98;;;;;;;1.62;87.27;101563.34;2088227;28;46956;-70
2022/02/01 02:16:43;;;;;;;15.57;1.00;;;;;;;1.58;87.56;101566.75;2085260;28;43954;-70
2022/02/01 02:17:47;;;;;;;15.25;1.23;;;;;;;1.55;87.74;101557.03;2088232;28;45514;-71
2022/02/01 02:18:50;;;;;;;18.27;1.83;;;;;;;1.51;87.46;101563.09;2088801;28;45125;-71
2022/02/01 02:19:51;;;;;;;18.35;1.58;;;;;;;1.49;87.89;101565.69;2088489;28;44983;-70
2022/02/01 02:20:56;;;;;;;15.57;1.15;;;;;;;1.44;87.93;101561.16;2088667;28;43131;-70
2022/02/01 02:22:05;;;;;;;16.42;1.42;;;;;;;1.40;87.74;101556.63;2087725;28;45399;-71
2022/02/01 02:23:09;;;;;;;26.08;1.60;;;;;;;1.40;88.40;101556.63;2081165;28;44879;-71
2022/02/01 02:24:16;;;;;;;15.90;1.20;;;;;;;1.35;88.21;101559.19;2089241;28;20930;-71
2022/02/01 02:25:18;;;;;;;15.80;1.20;;;;;;;1.33;88.36;101559.13;2087956;28;45143;-71
2022/02/01 02:26:20;;;;;;;17.48;1.67;;;;;;;1.32;88.79;101561.75;2079998;28;41973;-71
2022/02/01 02:27:21;;;;;;;17.42;1.15;;;;;;;1.29;88.42;101569.56;2087482;28;40904;-71
2022/02/01 02:28:23;;;;;;;15.82;1.00;;;;;;;1.28;88.72;101560.78;2088243;28;43705;-71
2022/02/01 02:29:29;;;;;;;16.33;1.33;;;;;;;1.26;88.62;101561.59;2088723;28;20037;-71
2022/02/01 02:30:31;;;;;;;18.00;1.27;;;;;;;1.23;88.64;101558.88;2080819;28;44016;-71
2022/02/01 02:31:33;;;;;;;14.25;1.20;;;;;;;1.23;88.65;101558.88;2079807;28;43312;-71
2022/02/01 02:32:39;;;;;;;18.77;2.08;;;;;;;1.21;88.49;101566.75;2079941;28;44293;-71
2022/02/01 02:33:41;;;;;;;17.38;2.03;;;;;;;1.24;88.89;101571.19;2087730;28;44420;-71
2022/02/01 02:34:45;;;;;;;22.55;1.90;;;;;;;1.24;89.18;101568.56;2088208;28;43776;-71
2022/02/01 02:35:56;;;;;;;19.15;1.55;;;;;;;1.28;89.08;101565.16;2087819;28;39648;-71
2022/02/01 02:37:01;;;;;;;20.10;1.38;;;;;;;1.26;88.69;101561.59;2088240;28;42296;-71
2022/02/01 02:38:08;;;;;;;13.23;1.65;;;;;;;1.28;88.51;101570.44;2088317;28;43856;-71
2022/02/01 02:40:32;;;;;;;25.35;1.77;;;;;;;1.33;88.39;101574.09;2087303;28;43321;-70
2022/02/01 02:41:48;;;;;;;19.65;1.45;;;;;;;1.35;88.19;101567.09;2082162;28;44350;-71
2022/02/01 02:45:43;;;;;;;18.88;1.52;;;;;;;1.44;87.45;101577.00;2080021;28;46598;-70
2022/02/01 02:46:46;;;;;;;20.75;1.85;;;;;;;1.47;88.09;101577.97;2088440;28;43616;-71
2022/02/01 02:47:48;;;;;;;19.52;1.50;;;;;;;1.49;87.66;101575.31;2088729;28;43826;-70
2022/02/01 02:48:49;;;;;;;14.07;1.38;;;;;;;1.50;87.24;101572.72;2087792;28;45130;-71
2022/02/01 02:49:53;;;;;;;19.77;1.40;;;;;;;1.53;87.24;101566.66;2088236;28;44004;-70
2022/02/01 02:50:55;;;;;;;18.17;1.45;;;;;;;1.52;87.22;101563.09;2088319;28;46424;-70
2022/02/01 02:51:57;;;;;;;13.32;1.20;;;;;;;1.55;87.33;101564.06;2088380;28;44563;-71
2022/02/01 02:52:59;;;;;;;15.85;1.67;;;;;;;1.57;87.97;101567.63;2088788;28;20817;-71
2022/02/01 02:54:13;;;;;;;22.58;1.60;;;;;;;1.60;87.71;101568.59;2087748;28;45499;-71
2022/02/01 02:55:15;;;;;;;21.27;1.35;;;;;;;1.63;87.02;101570.38;2079607;28;45389;-70
2022/02/01 02:56:17;;;;;;;18.70;1.33;;;;;;;1.66;87.61;101573.13;2080486;28;20065;-70
2022/02/01 02:57:18;;;;;;;16.15;1.40;;;;;;;1.69;87.70;101562.63;2080149;28;44511;-70
2022/02/01 02:58:20;;;;;;;19.38;1.60;;;;;;;1.76;87.33;101553.09;2080541;28;37464;-71
2022/02/01 02:59:24;;;;;;;20.50;1.65;;;;;;;1.76;87.19;101561.94;2079678;28;46354;-71
2022/02/01 03:00:25;;;;;;;19.17;1.67;;;;;;;1.80;87.65;101561.13;2071683;28;45434;-70
2022/02/01 03:01:28;;;;;;;16.40;1.60;;;;;;;1.85;88.36;101550.69;2079625;28;42870;-71
2022/02/01 03:02:33;;;;;;;25.95;1.25;;;;;;;1.87;88.12;101543.69;2080669;28;43305;-71
2022/02/01 03:03:35;;;;;;;16.65;1.38;;;;;;;1.89;88.67;101548.13;2080136;28;44051;-70
2022/02/01 03:04:37;;;;;;;18.65;1.35;;;;;;;1.91;88.24;101553.44;2079801;28;45015;-71
2022/02/01 03:05:38;;;;;;;11.30;1.00;;;;;;;1.90;88.71;101552.56;2079638;28;44620;-70
2022/02/01 03:06:42;;;;;;;16.42;1.38;;;;;;;1.89;88.63;101540.22;2071578;28;45344;-70
2022/02/01 03:07:43;;;;;;;18.85;1.40;;;;;;;1.88;88.84;101540.16;2071527;28;43247;-70
2022/02/01 03:08:48;;;;;;;11.95;1.33;;;;;;;1.88;89.10;101537.53;2071369;28;42888;-71
2022/02/01 03:09:49;;;;;;;17.25;1.58;;;;;;;1.86;88.67;101532.22;2079297;28;46253;-72
2022/02/01 03:10:51;;;;;;;13.80;1.20;;;;;;;1.83;88.93;101533.88;2080060;28;42343;-71
2022/02/01 03:12:00;;;;;;;14.60;1.23;;;;;;;1.83;89.07;101531.25;2071084;28;44744;-71
2022/02/01 03:13:12;;;;;;;18.70;1.48;;;;;;;1.79;89.19;101524.13;2072059;28;44358;-71
2022/02/01 03:16:48;;;;;;;21.23;1.85;;;;;;;1.71;89.62;101518.69;2080532;28;37577;-72
2022/02/01 03:20:34;;;;;;;13.80;1.20;;;;;;;1.61;89.98;101519.31;2079342;28;42857;-73
2022/02/01 03:21:36;;;;;;;16.80;1.40;;;;;;;1.62;90.26;101515.84;2073997;28;42288;-73
2022/02/01 03:22:38;;;;;;;20.13;1.48;;;;;;;1.58;90.40;101517.53;2079403;28;44601;-72
2022/02/01 03:23:42;;;;;;;9.38;0.50;;;;;;;1.57;90.00;101514.84;2080803;28;45268;-72
2022/02/01 03:24:43;;;;;;;13.18;0.93;;;;;;;1.56;90.60;101513.03;2088146;28;44741;-72
2022/02/01 03:25:45;;;;;;;16.30;1.25;;;;;;;1.54;90.78;101499.81;2088218;28;45332;-73
2022/02/01 03:26:47;;;;;;;10.85;0.70;;;;;;;1.52;90.76;101504.16;2088466;28;24345;-73
2022/02/01 03:27:48;;;;;;;13.65;1.40;;;;;;;1.48;90.72;101492.66;2088355;28;37526;-73
2022/02/01 03:28:50;;;;;;;20.92;1.63;;;;;;;1.49;90.85;101496.16;2087451;28;45461;-73
2022/02/01 03:29:54;;;;;;;17.42;1.40;;;;;;;1.48;90.93;101491.75;2087034;28;46321;-73
2022/02/01 03:30:57;;;;;;;16.50;1.10;;;;;;;1.45;91.24;101497.84;2088226;28;44598;-72
2022/02/01 03:31:59;;;;;;;12.82;1.30;;;;;;;1.45;91.72;101495.19;2088038;28;45381;-73
2022/02/01 03:33:01;;;;;;;16.73;1.50;;;;;;;1.41;91.09;101496.00;2087659;28;43623;-73
2022/02/01 03:34:05;;;;;;;18.73;1.80;;;;;;;1.41;91.74;101503.91;2079569;28;44323;-73
2022/02/01 03:35:06;;;;;;;15.77;1.65;;;;;;;1.41;91.91;101508.31;2079678;28;46394;-73
2022/02/01 03:36:08;;;;;;;24.77;1.70;;;;;;;1.38;92.01;101514.38;2087663;28;42099;-73
2022/02/01 03:37:10;;;;;;;17.80;1.23;;;;;;;1.37;92.03;101515.25;2087570;28;45645;-72
2022/02/01 03:38:11;;;;;;;14.57;1.30;;;;;;;1.32;91.41;101517.78;2087878;28;43691;-73
2022/02/01 03:39:14;;;;;;;20.98;1.30;;;;;;;1.33;91.92;101516.03;2088499;28;39764;-71
2022/02/01 03:40:19;;;;;;;16.85;1.50;;;;;;;1.32;91.99;101515.13;2088017;28;45206;-70
2022/02/01 03:41:21;;;;;;;14.40;1.38;;;;;;;1.31;92.48;101517.72;2087327;28;44464;-70
2022/02/01 03:42:25;;;;;;;20.95;1.33;;;;;;;1.34;92.24;101508.13;2089045;28;20080;-70
2022/02/01 03:43:27;;;;;;;28.90;1.67;;;;;;;1.35;92.31;101495.88;2087376;28;45090;-73
2022/02/01 03:44:32;;;;;;;20.42;1.98;;;;;;;1.33;92.05;101487.91;2088375;28;20964;-73
2022/02/01 03:45:34;;;;;;;14.68;1.23;;;;;;;1.31;92.06;101465.88;2088218;28;46337;-72
2022/02/01 03:46:36;;;;;;;18.58;1.40;;;;;;;1.35;92.61;101466.84;2087285;28;43218;-73
2022/02/01 03:47:38;;;;;;;22.23;1.60;;;;;;;1.36;92.16;101458.06;2087736;28;43912;-73
2022/02/01 03:48:39;;;;;;;18.35;1.38;;;;;;;1.35;92.20;101458.94;2087917;28;44766;-73
2022/02/01 03:49:42;;;;;;;21.20;1.88;;;;;;;1.37;92.36;101456.34;2087467;28;43336;-73
2022/02/01 03:50:44;;;;;;;17.75;1.58;;;;;;;1.37;92.45;101465.13;2087527;28;45671;-73
2022/02/01 03:51:45;;;;;;;18.67;1.77;;;;;;;1.37;91.81;101459.84;2087529;28;44257;-73
2022/02/01 03:52:49;;;;;;;17.13;2.05;;;;;;;1.37;91.73;101456.34;2087954;28;44255;-73
2022/02/01 03:53:51;;;;;;;19.75;1.48;;;;;;;1.38;92.63;101458.97;2087790;28;46472;-73
2022/02/01 03:54:53;;;;;;;16.90;1.10;;;;;;;1.37;92.10;101448.41;2088142;28;43057;-73
2022/02/01 03:55:54;;;;;;;20.15;1.45;;;;;;;1.40;92.16;101441.47;2088043;28;43121;-73
2022/02/01 03:56:58;;;;;;;16.38;1.20;;;;;;;1.41;91.75;101445.00;2087691;28;44229;-73
2022/02/01 03:58:03;;;;;;;17.35;1.35;;;;;;;1.42;92.41;101426.56;2089234;28;20985;-73
2022/02/01 03:59:05;;;;;;;19.08;1.35;;;;;;;1.44;92.11;101423.97;2083363;28;44931;-73
2022/02/01 04:00:08;;;;;;;13.90;1.13;;;;;;;1.43;92.25;101438.00;2087815;28;41939;-73
2022/02/01 04:01:15;;;;;;;16.63;1.40;;;;;;;1.40;92.32;101435.28;2087541;28;20110;-73
2022/02/01 04:02:18;;;;;;;16.40;0.98;;;;;;;1.42;92.19;101433.56;2080147;28;43895;-73
2022/02/01 04:03:20;;;;;;;18.42;1.52;;;;;;;1.40;92.38;101430.91;2087228;28;44299;-73
2022/02/01 04:04:27;;;;;;;16.25;1.20;;;;;;;1.39;92.32;101431.75;2087091;28;46308;-73
2022/02/01 04:05:30;;;;;;;15.40;1.00;;;;;;;1.37;92.11;101432.59;2087462;28;42240;-73
2022/02/01 04:06:32;;;;;;;13.07;0.82;;;;;;;1.36;92.39;101430.78;2087844;28;45504;-72
2022/02/01 04:07:34;;;;;;;14.82;1.45;;;;;;;1.34;92.08;101429.00;2087892;28;45831;-72
2022/02/01 04:08:38;;;;;;;19.58;1.10;;;;;;;1.32;92.41;101436.00;2087390;28;43774;-72
2022/02/01 04:09:42;;;;;;;15.68;0.90;;;;;;;1.33;92.28;101444.81;2088210;28;20042;-72
2022/02/01 04:10:45;;;;;;;17.83;1.50;;;;;;;1.32;92.28;101446.53;2088628;28;43074;-72
2022/02/01 04:11:47;;;;;;;15.02;1.33;;;;;;;1.30;92.15;101442.97;2086480;28;45452;-72
2022/02/01 04:12:50;;;;;;;16.55;1.00;;;;;;;1.27;92.15;101452.56;2079909;28;45993;-73
2022/02/01 04:13:55;;;;;;;20.50;1.20;;;;;;;1.26;91.78;101454.34;2087054;28;42650;-73
2022/02/01 04:14:58;;;;;;;12.93;1.27;;;;;;;1.29;92.29;101451.78;2094698;28;43679;-72
2022/02/01 04:15:59;;;;;;;14.60;0.98;;;;;;;1.24;92.46;101456.03;2086995;28;45830;-73
2022/02/01 04:17:06;;;;;;;17.45;1.38;;;;;;;1.23;92.18;101461.28;2088120;28;44413;-73
2022/02/01 04:18:09;;;;;;;20.58;1.85;;;;;;;1.23;92.38;101459.53;2087123;28;45152;-73
2022/02/01 04:19:12;;;;;;;18.48;1.60;;;;;;;1.29;92.43;101458.78;2079938;28;44774;-72
2022/02/01 04:20:15;;;;;;;17.20;1.58;;;;;;;1.23;92.41;101464.81;2087248;28;45103;-73
2022/02/01 04:21:16;;;;;;;15.68;1.30;;;;;;;1.22;92.49;101470.03;2087205;28;44287;-72
2022/02/01 04:22:18;;;;;;;15.38;1.48;;;;;;;1.22;92.85;101473.59;2087115;28;42739;-70
2022/02/01 04:23:20;;;;;;;16.30;1.63;;;;;;;1.24;92.68;101473.59;2095482;28;47274;-70
2022/02/01 04:24:21;;;;;;;15.07;1.38;;;;;;;1.21;92.31;101476.19;2087064;28;44323;-72
2022/02/01 04:25:23;;;;;;;14.55;1.33;;;;;;;1.20;92.81;101474.38;2087561;28;43063;-73
2022/02/01 04:26:25;;;;;;;21.60;1.42;;;;;;;1.17;92.64;101467.31;2087395;28;46199;-73
2022/02/01 04:27:32;;;;;;;16.10;1.70;;;;;;;1.13;92.77;101468.97;2088274;28;32785;-73
2022/02/01 04:28:34;;;;;;;12.88;0.98;;;;;;;1.14;92.63;101477.78;2087687;28;46445;-73
2022/02/01 04:29:40;;;;;;;22.08;2.30;;;;;;;1.17;93.39;101471.66;2087747;28;42337;-73
2022/02/01 04:30:41;;;;;;;26.10;1.27;;;;;;;1.18;92.86;101473.47;2087430;28;43881;-73
2022/02/01 04:31:43;;;;;;;16.08;1.23;;;;;;;1.18;92.79;101478.72;2087024;28;46379;-72
2022/02/01 04:32:54;;;;;;;17.85;1.73;;;;;;;1.17;92.95;101482.22;2079354;28;43973;-71
2022/02/01 04:33:56;;;;;;;17.63;1.60;;;;;;;1.18;93.12;101478.72;2078146;28;43275;-73
2022/02/01 04:34:59;;;;;;;15.13;1.40;;;;;;;1.15;93.40;101466.38;2079511;28;45971;-72
2022/02/01 04:36:02;;;;;;;19.58;1.38;;;;;;;1.13;93.27;101461.06;2087239;28;45157;-70
2022/02/01 04:37:04;;;;;;;18.08;1.10;;;;;;;1.12;93.03;101468.94;2087083;28;43812;-70
2022/02/01 04:38:06;;;;;;;20.23;1.45;;;;;;;1.13;93.21;101471.63;2087358;28;43337;-70
2022/02/01 04:39:08;;;;;;;14.70;0.82;;;;;;;1.13;93.44;101462.78;2087220;28;45371;-70
2022/02/01 04:40:14;;;;;;;12.70;0.93;;;;;;;1.16;93.04;101460.22;2087396;28;43725;-70
2022/02/01 04:41:15;;;;;;;16.33;1.13;;;;;;;1.18;93.29;101447.97;2087436;28;32546;-72
2022/02/01 04:42:17;;;;;;;19.05;1.42;;;;;;;1.21;93.19;101450.69;2087425;28;45485;-73
2022/02/01 04:43:21;;;;;;;14.48;0.85;;;;;;;1.23;92.97;101456.00;2088846;28;20164;-73
2022/02/01 04:44:25;;;;;;;17.48;1.23;;;;;;;1.20;93.07;101455.94;2087074;28;45733;-73
2022/02/01 04:45:27;;;;;;;24.05;1.55;;;;;;;1.20;93.12;101464.72;2087219;28;44723;-73
2022/02/01 04:46:32;;;;;;;12.85;1.00;;;;;;;1.20;92.97;101463.84;2088790;28;20849;-73
2022/02/01 04:47:35;;;;;;;15.25;0.90;;;;;;;1.22;93.38;101456.84;2087262;28;46607;-73
2022/02/01 04:48:37;;;;;;;16.20;1.15;;;;;;;1.21;93.40;101460.34;2087876;28;44232;-73
2022/02/01 04:49:39;;;;;;;11.00;0.90;;;;;;;1.21;93.12;101461.25;2086679;28;44130;-73
2022/02/01 04:50:43;;;;;;;18.00;1.13;;;;;;;1.20;93.69;101464.72;2087169;28;44824;-72
2022/02/01 04:51:45;;;;;;;16.55;1.60;;;;;;;1.18;93.36;101468.19;2087240;28;42728;-73
2022/02/01 04:52:51;;;;;;;15.48;1.10;;;;;;;1.20;93.61;101467.34;2087535;28;44756;-73
2022/02/01 04:53:53;;;;;;;11.18;0.70;;;;;;;1.17;93.20;101467.31;2088739;28;20843;-73
2022/02/01 04:54:57;;;;;;;15.90;0.90;;;;;;;1.22;93.67;101468.31;2087675;28;45533;-73
2022/02/01 04:55:59;;;;;;;20.83;1.00;;;;;;;1.24;93.54;101457.78;2079272;28;45327;-73
2022/02/01 04:57:03;;;;;;;17.27;1.30;;;;;;;1.24;93.55;101463.03;2086932;28;40433;-72
2022/02/01 04:58:07;;;;;;;13.82;1.00;;;;;;;1.26;93.50;101461.38;2087651;28;45424;-72
2022/02/01 04:59:11;;;;;;;15.27;1.40;;;;;;;1.28;93.69;101457.00;2087491;28;45960;-72
2022/02/01 05:00:16;;;;;;;17.55;0.90;;;;;;;1.30;93.63;101458.81;2087857;28;44951;-73
2022/02/01 05:01:23;;;;;;;21.65;1.45;;;;;;;1.36;93.73;101457.19;2087830;28;46504;-72
2022/02/01 05:02:25;;;;;;;15.38;1.00;;;;;;;1.37;93.41;101459.84;2088892;28;20957;-73
2022/02/01 05:03:27;;;;;;;17.30;1.45;;;;;;;1.40;93.17;101465.22;2087181;28;43187;-72
2022/02/01 05:04:32;;;;;;;15.80;1.30;;;;;;;1.45;93.26;101467.94;2088839;28;20084;-73
2022/02/01 05:05:34;;;;;;;22.23;1.15;;;;;;;1.48;93.01;101460.97;2087673;28;43706;-72
2022/02/01 05:06:36;;;;;;;9.90;0.60;;;;;;;1.51;93.19;101453.16;2087575;28;43946;-73
2022/02/01 05:07:37;;;;;;;19.48;1.08;;;;;;;1.53;93.20;101456.69;2087280;28;44367;-72
2022/02/01 05:08:43;;;;;;;12.40;0.77;;;;;;;1.57;92.67;101451.50;2086997;28;44067;-73
2022/02/01 05:09:45;;;;;;;11.55;1.20;;;;;;;1.57;93.09;101454.16;2087638;28;43680;-73
2022/02/01 05:10:46;;;;;;;11.57;0.80;;;;;;;1.59;92.46;101461.22;2087391;28;45629;-71
2022/02/01 05:11:50;;;;;;;9.27;1.02;;;;;;;1.63;92.70;101456.91;2087305;28;45149;-72
2022/02/01 05:12:51;;;;;;;13.70;1.23;;;;;;;1.66;92.85;101456.97;2087106;28;44546;-72
2022/02/01 05:15:08;;;;;;;14.35;0.80;;;;;;;1.74;92.22;101454.50;2087532;28;46005;-72
2022/02/01 05:16:19;;;;;;;20.45;1.63;;;;;;;1.76;92.42;101443.13;2088400;28;20037;-72
2022/02/01 05:17:23;;;;;;;17.35;1.13;;;;;;;1.78;92.30;101441.41;2086803;28;46352;-72
2022/02/01 05:18:48;;;;;;;18.42;1.33;;;;;;;1.83;92.25;101442.41;2087836;28;20033;-72
2022/02/01 05:19:58;;;;;;;13.45;0.80;;;;;;;1.88;92.02;101442.47;2079511;28;44280;-72
2022/02/01 05:21:06;;;;;;;14.95;0.80;;;;;;;1.90;91.83;101449.59;2086988;28;46418;-72
2022/02/01 05:22:12;;;;;;;13.45;1.10;;;;;;;1.92;91.97;101449.63;2086892;28;36680;-72
2022/02/01 05:23:15;;;;;;;17.33;0.98;;;;;;;1.93;91.61;101447.88;2086893;28;45826;-72
2022/02/01 05:24:19;;;;;;;10.40;0.82;;;;;;;1.97;91.62;101442.66;2086843;28;45837;-72
2022/02/01 05:25:28;;;;;;;16.83;1.40;;;;;;;1.99;91.72;101437.41;2087420;28;44075;-72
2022/02/01 05:26:32;;;;;;;18.20;0.73;;;;;;;1.99;91.67;101445.34;2087478;28;44037;-72
2022/02/01 05:27:34;;;;;;;16.75;1.13;;;;;;;2.01;90.88;101435.69;2087816;28;44563;-72
2022/02/01 05:28:37;;;;;;;14.57;0.95;;;;;;;2.03;91.09;101449.84;2087394;28;45345;-72
2022/02/01 05:29:40;;;;;;;15.35;0.77;;;;;;;2.04;91.06;101447.22;2087410;28;45797;-72
2022/02/01 05:30:44;;;;;;;14.10;1.08;;;;;;;2.04;91.03;101451.59;2087048;28;42872;-72
2022/02/01 05:31:51;;;;;;;14.07;0.90;;;;;;;2.05;90.94;101448.13;2088015;28;20038;-72
2022/02/01 05:32:54;;;;;;;11.23;0.77;;;;;;;2.05;91.15;101451.66;2087742;28;38705;-72
2022/02/01 05:33:55;;;;;;;10.25;0.90;;;;;;;2.05;90.87;101443.72;2086929;28;44988;-72
2022/02/01 05:34:57;;;;;;;13.30;0.82;;;;;;;2.05;90.84;101451.66;2086880;28;43901;-72
2022/02/01 05:36:02;;;;;;;16.85;1.45;;;;;;;2.07;91.12;101443.75;2086882;28;45280;-72
2022/02/01 05:37:04;;;;;;;15.75;0.82;;;;;;;2.07;91.02;101430.56;2086785;28;46356;-72
2022/02/01 05:38:05;;;;;;;13.68;0.65;;;;;;;2.07;90.90;101423.50;2087032;28;43532;-72
2022/02/01 05:39:23;;;;;;;9.80;1.08;;;;;;;2.07;91.03;101415.59;2087083;28;45759;-72
2022/02/01 05:40:26;;;;;;;8.77;0.60;;;;;;;2.07;90.99;101417.34;2087070;28;45510;-72
2022/02/01 05:41:28;;;;;;;9.20;0.80;;;;;;;2.10;90.95;101420.94;2086745;28;46700;-72
2022/02/01 05:42:41;;;;;;;14.02;1.02;;;;;;;2.12;90.81;101420.06;2087009;28;33546;-72
2022/02/01 05:43:43;;;;;;;14.55;0.68;;;;;;;2.13;91.09;101427.13;2087514;28;43009;-72
2022/02/01 05:44:45;;;;;;;14.35;0.80;;;;;;;2.12;91.20;101426.25;2087449;28;44283;-73
2022/02/01 05:45:47;;;;;;;12.90;0.98;;;;;;;2.12;90.98;101423.63;2087501;28;46259;-73
2022/02/01 05:46:49;;;;;;;14.82;1.00;;;;;;;2.13;91.04;101429.78;2088580;28;43392;-73
2022/02/01 05:47:51;;;;;;;12.02;1.00;;;;;;;2.13;91.45;101417.44;2088063;28;44195;-73
2022/02/01 05:48:53;;;;;;;20.80;1.10;;;;;;;2.13;91.49;101420.09;2080524;28;43304;-73
2022/02/01 05:49:55;;;;;;;11.65;1.13;;;;;;;2.14;91.39;101413.97;2088219;28;43991;-73
2022/02/01 05:50:57;;;;;;;12.13;0.85;;;;;;;2.14;91.47;101418.38;2088848;28;46361;-73
2022/02/01 05:52:01;;;;;;;11.65;0.63;;;;;;;2.14;91.69;101419.25;2088469;28;43348;-73
2022/02/01 05:53:02;;;;;;;9.35;0.55;;;;;;;2.13;92.35;101412.16;2088799;28;44259;-73
2022/02/01 05:54:05;;;;;;;13.95;0.88;;;;;;;2.13;92.56;101409.53;2088834;28;45581;-72
2022/02/01 05:55:10;;;;;;;12.60;1.42;;;;;;;2.13;92.25;101404.25;2088875;28;45609;-73
2022/02/01 05:56:13;;;;;;;13.15;1.52;;;;;;;2.12;91.88;101397.19;2088389;28;37568;-72
2022/02/01 05:57:14;;;;;;;11.95;0.82;;;;;;;2.12;92.12;101389.28;2081119;28;42362;-74
2022/02/01 05:58:17;;;;;;;14.05;0.85;;;;;;;2.12;92.50;101389.28;2088283;28;45307;-73
2022/02/01 05:59:19;;;;;;;7.88;0.47;;;;;;;2.12;92.94;101383.06;2088122;28;43499;-73
2022/02/01 06:00:27;;;;;;;11.15;0.68;;;;;;;2.11;92.56;101392.75;2088708;28;20037;-72
2022/02/01 06:01:28;;;;;;;8.88;0.70;;;;;;;2.11;92.39;101392.75;2080226;28;40041;-73
2022/02/01 06:02:30;;;;;;;13.98;1.00;;;;;;;2.09;92.67;101395.38;2079825;28;43131;-73
2022/02/01 06:03:35;;;;;;;15.07;0.98;;;;;;;2.11;92.51;101400.69;2080438;28;44272;-73
2022/02/01 06:04:36;;;;;;;10.90;0.90;;;;;;;2.12;92.27;101399.84;2072389;28;39464;-73
2022/02/01 06:05:38;;;;;;;16.42;1.30;;;;;;;2.11;92.31;101405.97;2080138;28;43088;-72
2022/02/01 06:06:40;;;;;;;11.80;0.50;;;;;;;2.10;93.15;101407.72;2080483;28;45418;-73
2022/02/01 06:07:44;;;;;;;15.30;1.10;;;;;;;2.12;92.87;101406.84;2071964;28;31023;-72
2022/02/01 06:08:46;;;;;;;10.57;0.70;;;;;;;2.09;92.34;101411.22;2071916;28;43093;-72